sensor_id;sensor_type;location;lat;lon;timestamp;P1;durP1;ratioP1;P2;durP2;ratioP2
60610;SDS011;46439;51.164;13.572;2023-10-31T00:00:02;8.40;;;5.10;;
60610;SDS011;46439;51.164;13.572;2023-10-31T00:02:33;9.10;;;4.60;;
60610;SDS011;46439;51.164;13.572;2023-10-31T00:05:02;8.70;;;4.90;;
60610;SDS011;46439;51.164;13.572;2023-10-31T00:07:32;7.80;;;4.90;;
60610;SDS011;46439;51.164;13.572;2023-10-31T00:10:01;9.80;;;5.40;;
60610;SDS011;46439;51.164;13.572;2023-10-31T00:12:30;8.00;;;4.80;;
60610;SDS011;46439;51.164;13.572;2023-10-31T00:14:59;12.40;;;5.30;;
60610;SDS011;46439;51.164;13.572;2023-10-31T00:17:27;6.80;;;4.50;;
60610;SDS011;46439;51.164;13.572;2023-10-31T00:19:56;9.60;;;4.90;;
60610;SDS011;46439;51.164;13.572;2023-10-31T00:22:24;9.10;;;4.90;;
60610;SDS011;46439;51.164;13.572;2023-10-31T00:24:53;9.60;;;5.30;;
60610;SDS011;46439;51.164;13.572;2023-10-31T00:27:22;7.20;;;5.20;;
60610;SDS011;46439;51.164;13.572;2023-10-31T00:29:51;8.10;;;5.30;;
60610;SDS011;46439;51.164;13.572;2023-10-31T00:32:20;7.80;;;5.00;;
60610;SDS011;46439;51.164;13.572;2023-10-31T00:34:48;9.20;;;5.30;;
60610;SDS011;46439;51.164;13.572;2023-10-31T00:37:17;9.50;;;5.10;;
60610;SDS011;46439;51.164;13.572;2023-10-31T00:39:46;8.60;;;5.80;;
60610;SDS011;46439;51.164;13.572;2023-10-31T00:42:14;10.90;;;5.60;;
60610;SDS011;46439;51.164;13.572;2023-10-31T00:44:43;8.10;;;5.50;;
60610;SDS011;46439;51.164;13.572;2023-10-31T00:47:12;11.00;;;5.20;;
60610;SDS011;46439;51.164;13.572;2023-10-31T00:49:42;10.70;;;5.50;;
60610;SDS011;46439;51.164;13.572;2023-10-31T00:52:10;9.60;;;5.50;;
60610;SDS011;46439;51.164;13.572;2023-10-31T00:54:39;10.90;;;5.40;;
60610;SDS011;46439;51.164;13.572;2023-10-31T00:57:08;11.70;;;5.40;;
60610;SDS011;46439;51.164;13.572;2023-10-31T00:59:37;13.00;;;5.10;;
60610;SDS011;46439;51.164;13.572;2023-10-31T01:02:06;9.40;;;5.30;;
60610;SDS011;46439;51.164;13.572;2023-10-31T01:04:34;9.50;;;4.90;;
60610;SDS011;46439;51.164;13.572;2023-10-31T01:07:04;9.30;;;5.00;;
60610;SDS011;46439;51.164;13.572;2023-10-31T01:09:33;9.50;;;4.60;;
60610;SDS011;46439;51.164;13.572;2023-10-31T01:12:02;9.60;;;5.20;;
60610;SDS011;46439;51.164;13.572;2023-10-31T01:14:31;7.70;;;5.20;;
60610;SDS011;46439;51.164;13.572;2023-10-31T01:17:00;9.20;;;5.10;;
60610;SDS011;46439;51.164;13.572;2023-10-31T01:19:29;10.70;;;4.60;;
60610;SDS011;46439;51.164;13.572;2023-10-31T01:21:58;7.20;;;4.50;;
60610;SDS011;46439;51.164;13.572;2023-10-31T01:24:27;8.20;;;4.70;;
60610;SDS011;46439;51.164;13.572;2023-10-31T01:26:55;8.10;;;4.80;;
60610;SDS011;46439;51.164;13.572;2023-10-31T01:29:24;8.60;;;5.50;;
60610;SDS011;46439;51.164;13.572;2023-10-31T01:31:52;11.90;;;5.80;;
60610;SDS011;46439;51.164;13.572;2023-10-31T01:34:21;8.20;;;5.00;;
60610;SDS011;46439;51.164;13.572;2023-10-31T01:36:50;10.60;;;5.00;;
60610;SDS011;46439;51.164;13.572;2023-10-31T01:39:18;8.40;;;5.40;;
60610;SDS011;46439;51.164;13.572;2023-10-31T01:41:47;8.60;;;5.20;;
60610;SDS011;46439;51.164;13.572;2023-10-31T01:44:15;8.20;;;4.90;;
60610;SDS011;46439;51.164;13.572;2023-10-31T01:46:44;9.40;;;5.40;;
60610;SDS011;46439;51.164;13.572;2023-10-31T01:49:12;8.00;;;5.20;;
60610;SDS011;46439;51.164;13.572;2023-10-31T01:51:42;7.90;;;4.60;;
60610;SDS011;46439;51.164;13.572;2023-10-31T01:54:11;7.20;;;4.70;;
60610;SDS011;46439;51.164;13.572;2023-10-31T01:56:41;12.10;;;5.30;;
60610;SDS011;46439;51.164;13.572;2023-10-31T01:59:10;7.20;;;5.00;;
60610;SDS011;46439;51.164;13.572;2023-10-31T02:01:39;9.20;;;4.60;;
60610;SDS011;46439;51.164;13.572;2023-10-31T02:04:08;7.90;;;5.00;;
60610;SDS011;46439;51.164;13.572;2023-10-31T02:06:37;8.20;;;5.10;;
60610;SDS011;46439;51.164;13.572;2023-10-31T02:09:05;10.30;;;5.00;;
60610;SDS011;46439;51.164;13.572;2023-10-31T02:11:34;9.80;;;6.20;;
60610;SDS011;46439;51.164;13.572;2023-10-31T02:14:03;13.40;;;7.20;;
60610;SDS011;46439;51.164;13.572;2023-10-31T02:16:32;13.90;;;7.70;;
60610;SDS011;46439;51.164;13.572;2023-10-31T02:19:01;10.10;;;7.80;;
60610;SDS011;46439;51.164;13.572;2023-10-31T02:21:30;9.40;;;7.60;;
60610;SDS011;46439;51.164;13.572;2023-10-31T02:23:59;11.00;;;8.20;;
60610;SDS011;46439;51.164;13.572;2023-10-31T02:26:30;11.70;;;8.70;;
60610;SDS011;46439;51.164;13.572;2023-10-31T02:28:59;11.80;;;8.60;;
60610;SDS011;46439;51.164;13.572;2023-10-31T02:31:29;13.40;;;10.10;;
60610;SDS011;46439;51.164;13.572;2023-10-31T02:33:57;12.70;;;10.00;;
60610;SDS011;46439;51.164;13.572;2023-10-31T02:36:26;14.90;;;11.30;;
60610;SDS011;46439;51.164;13.572;2023-10-31T02:38:55;19.90;;;12.20;;
60610;SDS011;46439;51.164;13.572;2023-10-31T02:41:23;18.30;;;12.00;;
60610;SDS011;46439;51.164;13.572;2023-10-31T02:43:52;16.60;;;12.50;;
60610;SDS011;46439;51.164;13.572;2023-10-31T02:46:22;20.70;;;14.50;;
60610;SDS011;46439;51.164;13.572;2023-10-31T02:48:50;19.10;;;13.50;;
60610;SDS011;46439;51.164;13.572;2023-10-31T02:51:19;19.50;;;14.20;;
60610;SDS011;46439;51.164;13.572;2023-10-31T02:53:47;19.60;;;13.20;;
60610;SDS011;46439;51.164;13.572;2023-10-31T02:56:16;15.50;;;12.10;;
60610;SDS011;46439;51.164;13.572;2023-10-31T02:58:45;18.80;;;12.90;;
60610;SDS011;46439;51.164;13.572;2023-10-31T03:01:14;18.90;;;12.10;;
60610;SDS011;46439;51.164;13.572;2023-10-31T03:03:44;17.10;;;11.80;;
60610;SDS011;46439;51.164;13.572;2023-10-31T03:06:13;17.40;;;11.70;;
60610;SDS011;46439;51.164;13.572;2023-10-31T03:08:41;14.60;;;10.90;;
60610;SDS011;46439;51.164;13.572;2023-10-31T03:11:10;15.10;;;11.30;;
60610;SDS011;46439;51.164;13.572;2023-10-31T03:13:49;16.00;;;11.30;;
60610;SDS011;46439;51.164;13.572;2023-10-31T03:16:19;14.80;;;11.40;;
60610;SDS011;46439;51.164;13.572;2023-10-31T03:18:48;14.50;;;10.80;;
60610;SDS011;46439;51.164;13.572;2023-10-31T03:21:17;14.50;;;10.60;;
60610;SDS011;46439;51.164;13.572;2023-10-31T03:23:48;15.60;;;10.90;;
60610;SDS011;46439;51.164;13.572;2023-10-31T03:26:17;13.10;;;10.40;;
60610;SDS011;46439;51.164;13.572;2023-10-31T03:28:45;16.20;;;10.90;;
60610;SDS011;46439;51.164;13.572;2023-10-31T03:31:14;17.40;;;10.90;;
60610;SDS011;46439;51.164;13.572;2023-10-31T03:33:44;12.50;;;10.00;;
60610;SDS011;46439;51.164;13.572;2023-10-31T03:36:13;13.30;;;10.00;;
60610;SDS011;46439;51.164;13.572;2023-10-31T03:38:41;11.80;;;8.90;;
60610;SDS011;46439;51.164;13.572;2023-10-31T03:41:10;13.50;;;7.30;;
60610;SDS011;46439;51.164;13.572;2023-10-31T03:43:39;9.90;;;7.10;;
60610;SDS011;46439;51.164;13.572;2023-10-31T03:46:08;8.70;;;6.30;;
60610;SDS011;46439;51.164;13.572;2023-10-31T03:48:37;11.10;;;6.70;;
60610;SDS011;46439;51.164;13.572;2023-10-31T03:51:06;9.00;;;6.10;;
60610;SDS011;46439;51.164;13.572;2023-10-31T03:53:34;8.30;;;5.90;;
60610;SDS011;46439;51.164;13.572;2023-10-31T03:56:04;7.30;;;5.50;;
60610;SDS011;46439;51.164;13.572;2023-10-31T03:58:33;10.20;;;5.60;;
60610;SDS011;46439;51.164;13.572;2023-10-31T04:01:01;7.30;;;5.30;;
60610;SDS011;46439;51.164;13.572;2023-10-31T04:03:30;9.70;;;5.30;;
60610;SDS011;46439;51.164;13.572;2023-10-31T04:05:59;6.70;;;4.50;;
60610;SDS011;46439;51.164;13.572;2023-10-31T04:08:27;7.70;;;4.40;;
60610;SDS011;46439;51.164;13.572;2023-10-31T04:10:56;8.40;;;5.10;;
60610;SDS011;46439;51.164;13.572;2023-10-31T04:13:24;8.90;;;5.10;;
60610;SDS011;46439;51.164;13.572;2023-10-31T04:15:53;7.10;;;4.90;;
60610;SDS011;46439;51.164;13.572;2023-10-31T04:18:21;6.10;;;4.80;;
60610;SDS011;46439;51.164;13.572;2023-10-31T04:20:50;6.40;;;3.80;;
60610;SDS011;46439;51.164;13.572;2023-10-31T04:23:18;7.40;;;4.10;;
60610;SDS011;46439;51.164;13.572;2023-10-31T04:25:47;9.30;;;3.60;;
60610;SDS011;46439;51.164;13.572;2023-10-31T04:28:15;4.50;;;3.50;;
60610;SDS011;46439;51.164;13.572;2023-10-31T04:30:44;6.10;;;3.60;;
60610;SDS011;46439;51.164;13.572;2023-10-31T04:33:13;6.40;;;3.00;;
60610;SDS011;46439;51.164;13.572;2023-10-31T04:35:41;5.40;;;3.40;;
60610;SDS011;46439;51.164;13.572;2023-10-31T04:38:10;4.10;;;2.60;;
60610;SDS011;46439;51.164;13.572;2023-10-31T04:40:39;5.60;;;3.00;;
60610;SDS011;46439;51.164;13.572;2023-10-31T04:43:09;4.80;;;3.10;;
60610;SDS011;46439;51.164;13.572;2023-10-31T04:45:39;3.90;;;2.50;;
60610;SDS011;46439;51.164;13.572;2023-10-31T04:48:08;3.90;;;2.50;;
60610;SDS011;46439;51.164;13.572;2023-10-31T04:50:37;2.20;;;2.00;;
60610;SDS011;46439;51.164;13.572;2023-10-31T04:53:06;7.10;;;3.50;;
60610;SDS011;46439;51.164;13.572;2023-10-31T04:55:35;3.10;;;2.00;;
60610;SDS011;46439;51.164;13.572;2023-10-31T04:58:04;3.30;;;2.10;;
60610;SDS011;46439;51.164;13.572;2023-10-31T05:00:32;3.90;;;2.20;;
60610;SDS011;46439;51.164;13.572;2023-10-31T05:03:01;3.10;;;1.80;;
60610;SDS011;46439;51.164;13.572;2023-10-31T05:05:29;2.50;;;1.90;;
60610;SDS011;46439;51.164;13.572;2023-10-31T05:07:58;3.90;;;2.20;;
60610;SDS011;46439;51.164;13.572;2023-10-31T05:10:26;3.70;;;1.80;;
60610;SDS011;46439;51.164;13.572;2023-10-31T05:12:55;2.90;;;2.10;;
60610;SDS011;46439;51.164;13.572;2023-10-31T05:15:23;4.50;;;2.20;;
60610;SDS011;46439;51.164;13.572;2023-10-31T05:17:52;4.50;;;2.40;;
60610;SDS011;46439;51.164;13.572;2023-10-31T05:20:20;4.20;;;2.80;;
60610;SDS011;46439;51.164;13.572;2023-10-31T05:22:49;6.40;;;2.40;;
60610;SDS011;46439;51.164;13.572;2023-10-31T05:25:17;3.90;;;2.40;;
60610;SDS011;46439;51.164;13.572;2023-10-31T05:27:46;6.00;;;3.30;;
60610;SDS011;46439;51.164;13.572;2023-10-31T05:30:15;4.40;;;2.30;;
60610;SDS011;46439;51.164;13.572;2023-10-31T05:32:44;8.60;;;2.80;;
60610;SDS011;46439;51.164;13.572;2023-10-31T05:35:13;3.70;;;2.00;;
60610;SDS011;46439;51.164;13.572;2023-10-31T05:37:42;3.80;;;2.30;;
60610;SDS011;46439;51.164;13.572;2023-10-31T05:40:14;2.20;;;1.70;;
60610;SDS011;46439;51.164;13.572;2023-10-31T05:42:42;1.60;;;1.50;;
60610;SDS011;46439;51.164;13.572;2023-10-31T05:45:11;4.90;;;2.90;;
60610;SDS011;46439;51.164;13.572;2023-10-31T05:47:39;2.50;;;1.60;;
60610;SDS011;46439;51.164;13.572;2023-10-31T05:50:09;3.50;;;1.70;;
60610;SDS011;46439;51.164;13.572;2023-10-31T05:52:37;1.60;;;1.50;;
60610;SDS011;46439;51.164;13.572;2023-10-31T05:55:07;2.10;;;1.60;;
60610;SDS011;46439;51.164;13.572;2023-10-31T05:57:36;4.00;;;1.60;;
60610;SDS011;46439;51.164;13.572;2023-10-31T06:00:06;1.60;;;1.50;;
60610;SDS011;46439;51.164;13.572;2023-10-31T06:02:35;1.40;;;1.30;;
60610;SDS011;46439;51.164;13.572;2023-10-31T06:05:05;1.70;;;1.40;;
60610;SDS011;46439;51.164;13.572;2023-10-31T06:07:35;1.80;;;1.50;;
60610;SDS011;46439;51.164;13.572;2023-10-31T06:10:04;8.70;;;3.20;;
60610;SDS011;46439;51.164;13.572;2023-10-31T06:12:34;1.60;;;1.40;;
60610;SDS011;46439;51.164;13.572;2023-10-31T06:15:03;5.40;;;1.30;;
60610;SDS011;46439;51.164;13.572;2023-10-31T06:17:34;1.40;;;1.20;;
60610;SDS011;46439;51.164;13.572;2023-10-31T06:20:04;7.20;;;2.50;;
60610;SDS011;46439;51.164;13.572;2023-10-31T06:22:35;1.80;;;1.30;;
60610;SDS011;46439;51.164;13.572;2023-10-31T06:25:04;1.40;;;1.30;;
60610;SDS011;46439;51.164;13.572;2023-10-31T06:27:33;1.50;;;1.20;;
60610;SDS011;46439;51.164;13.572;2023-10-31T06:30:03;1.50;;;1.30;;
60610;SDS011;46439;51.164;13.572;2023-10-31T06:32:33;1.50;;;1.30;;
60610;SDS011;46439;51.164;13.572;2023-10-31T06:35:01;1.60;;;1.40;;
60610;SDS011;46439;51.164;13.572;2023-10-31T06:37:30;1.30;;;1.20;;
60610;SDS011;46439;51.164;13.572;2023-10-31T06:39:59;1.40;;;1.30;;
60610;SDS011;46439;51.164;13.572;2023-10-31T06:42:27;1.20;;;1.00;;
60610;SDS011;46439;51.164;13.572;2023-10-31T06:44:56;0.90;;;0.90;;
60610;SDS011;46439;51.164;13.572;2023-10-31T06:47:25;0.90;;;0.90;;
60610;SDS011;46439;51.164;13.572;2023-10-31T06:49:53;1.60;;;0.90;;
60610;SDS011;46439;51.164;13.572;2023-10-31T06:52:22;1.20;;;1.00;;
60610;SDS011;46439;51.164;13.572;2023-10-31T06:54:51;1.20;;;1.00;;
60610;SDS011;46439;51.164;13.572;2023-10-31T06:57:19;1.00;;;0.90;;
60610;SDS011;46439;51.164;13.572;2023-10-31T06:59:48;1.10;;;1.00;;
60610;SDS011;46439;51.164;13.572;2023-10-31T07:02:16;2.90;;;0.90;;
60610;SDS011;46439;51.164;13.572;2023-10-31T07:04:45;1.60;;;1.10;;
60610;SDS011;46439;51.164;13.572;2023-10-31T07:07:13;0.80;;;0.80;;
60610;SDS011;46439;51.164;13.572;2023-10-31T07:09:42;1.00;;;1.00;;
60610;SDS011;46439;51.164;13.572;2023-10-31T07:12:11;0.80;;;0.80;;
60610;SDS011;46439;51.164;13.572;2023-10-31T07:14:39;0.90;;;0.90;;
60610;SDS011;46439;51.164;13.572;2023-10-31T07:17:08;1.00;;;0.80;;
60610;SDS011;46439;51.164;13.572;2023-10-31T07:19:36;1.00;;;1.00;;
60610;SDS011;46439;51.164;13.572;2023-10-31T07:22:05;1.30;;;0.90;;
60610;SDS011;46439;51.164;13.572;2023-10-31T07:24:34;1.10;;;0.80;;
60610;SDS011;46439;51.164;13.572;2023-10-31T07:27:03;1.90;;;1.10;;
60610;SDS011;46439;51.164;13.572;2023-10-31T07:29:32;2.20;;;1.30;;
60610;SDS011;46439;51.164;13.572;2023-10-31T07:32:01;0.90;;;0.90;;
60610;SDS011;46439;51.164;13.572;2023-10-31T07:34:30;1.40;;;1.30;;
60610;SDS011;46439;51.164;13.572;2023-10-31T07:36:58;1.20;;;1.10;;
60610;SDS011;46439;51.164;13.572;2023-10-31T07:39:27;1.10;;;0.80;;
60610;SDS011;46439;51.164;13.572;2023-10-31T07:41:55;2.00;;;0.90;;
60610;SDS011;46439;51.164;13.572;2023-10-31T07:44:24;1.50;;;1.20;;
60610;SDS011;46439;51.164;13.572;2023-10-31T07:46:52;2.70;;;1.20;;
60610;SDS011;46439;51.164;13.572;2023-10-31T07:49:21;2.00;;;1.80;;
60610;SDS011;46439;51.164;13.572;2023-10-31T07:51:50;1.40;;;1.00;;
60610;SDS011;46439;51.164;13.572;2023-10-31T07:54:18;1.30;;;1.20;;
60610;SDS011;46439;51.164;13.572;2023-10-31T07:56:47;1.00;;;1.00;;
60610;SDS011;46439;51.164;13.572;2023-10-31T07:59:16;3.90;;;2.40;;
60610;SDS011;46439;51.164;13.572;2023-10-31T08:01:45;2.00;;;1.40;;
60610;SDS011;46439;51.164;13.572;2023-10-31T08:04:15;1.10;;;1.00;;
60610;SDS011;46439;51.164;13.572;2023-10-31T08:06:44;1.90;;;1.10;;
60610;SDS011;46439;51.164;13.572;2023-10-31T08:09:12;0.90;;;0.90;;
60610;SDS011;46439;51.164;13.572;2023-10-31T08:11:42;1.10;;;0.80;;
60610;SDS011;46439;51.164;13.572;2023-10-31T08:14:11;0.80;;;0.70;;
60610;SDS011;46439;51.164;13.572;2023-10-31T08:16:42;0.80;;;0.80;;
60610;SDS011;46439;51.164;13.572;2023-10-31T08:19:11;1.00;;;1.00;;
60610;SDS011;46439;51.164;13.572;2023-10-31T08:21:41;1.60;;;1.00;;
60610;SDS011;46439;51.164;13.572;2023-10-31T08:24:10;1.40;;;1.00;;
60610;SDS011;46439;51.164;13.572;2023-10-31T08:26:40;5.50;;;4.10;;
60610;SDS011;46439;51.164;13.572;2023-10-31T08:29:08;4.80;;;3.00;;
60610;SDS011;46439;51.164;13.572;2023-10-31T08:31:37;3.70;;;2.00;;
60610;SDS011;46439;51.164;13.572;2023-10-31T08:34:06;3.80;;;2.90;;
60610;SDS011;46439;51.164;13.572;2023-10-31T08:36:34;3.40;;;1.80;;
60610;SDS011;46439;51.164;13.572;2023-10-31T08:39:03;2.40;;;1.70;;
60610;SDS011;46439;51.164;13.572;2023-10-31T08:41:32;2.10;;;1.00;;
60610;SDS011;46439;51.164;13.572;2023-10-31T08:44:01;1.80;;;1.20;;
60610;SDS011;46439;51.164;13.572;2023-10-31T08:46:30;0.70;;;0.70;;
60610;SDS011;46439;51.164;13.572;2023-10-31T08:48:58;0.60;;;0.50;;
60610;SDS011;46439;51.164;13.572;2023-10-31T08:51:27;1.20;;;0.80;;
60610;SDS011;46439;51.164;13.572;2023-10-31T08:53:55;1.10;;;0.80;;
60610;SDS011;46439;51.164;13.572;2023-10-31T08:56:24;1.60;;;1.40;;
60610;SDS011;46439;51.164;13.572;2023-10-31T08:58:54;2.70;;;1.90;;
60610;SDS011;46439;51.164;13.572;2023-10-31T09:01:22;2.20;;;0.90;;
60610;SDS011;46439;51.164;13.572;2023-10-31T09:03:51;2.30;;;0.90;;
60610;SDS011;46439;51.164;13.572;2023-10-31T09:06:20;0.50;;;0.50;;
60610;SDS011;46439;51.164;13.572;2023-10-31T09:08:48;0.80;;;0.60;;
60610;SDS011;46439;51.164;13.572;2023-10-31T09:11:17;2.60;;;1.40;;
60610;SDS011;46439;51.164;13.572;2023-10-31T09:13:47;1.70;;;1.30;;
60610;SDS011;46439;51.164;13.572;2023-10-31T09:16:15;1.70;;;0.60;;
60610;SDS011;46439;51.164;13.572;2023-10-31T09:18:44;0.50;;;0.50;;
60610;SDS011;46439;51.164;13.572;2023-10-31T09:21:13;3.10;;;1.10;;
60610;SDS011;46439;51.164;13.572;2023-10-31T09:23:42;3.50;;;1.70;;
60610;SDS011;46439;51.164;13.572;2023-10-31T09:26:10;1.30;;;0.70;;
60610;SDS011;46439;51.164;13.572;2023-10-31T09:28:39;0.80;;;0.70;;
60610;SDS011;46439;51.164;13.572;2023-10-31T09:31:16;1.20;;;1.00;;
60610;SDS011;46439;51.164;13.572;2023-10-31T09:33:45;2.10;;;1.20;;
60610;SDS011;46439;51.164;13.572;2023-10-31T09:36:13;0.90;;;0.80;;
60610;SDS011;46439;51.164;13.572;2023-10-31T09:38:42;1.10;;;0.90;;
60610;SDS011;46439;51.164;13.572;2023-10-31T09:41:11;2.40;;;0.50;;
60610;SDS011;46439;51.164;13.572;2023-10-31T09:43:41;0.80;;;0.60;;
60610;SDS011;46439;51.164;13.572;2023-10-31T09:46:09;2.50;;;1.10;;
60610;SDS011;46439;51.164;13.572;2023-10-31T09:48:38;2.10;;;0.60;;
60610;SDS011;46439;51.164;13.572;2023-10-31T09:51:08;3.20;;;0.90;;
60610;SDS011;46439;51.164;13.572;2023-10-31T09:56:08;0.70;;;0.50;;
60610;SDS011;46439;51.164;13.572;2023-10-31T09:58:38;0.60;;;0.60;;
60610;SDS011;46439;51.164;13.572;2023-10-31T10:01:08;2.40;;;1.10;;
60610;SDS011;46439;51.164;13.572;2023-10-31T10:03:37;2.70;;;1.10;;
60610;SDS011;46439;51.164;13.572;2023-10-31T10:06:07;1.50;;;0.70;;
60610;SDS011;46439;51.164;13.572;2023-10-31T10:08:38;0.80;;;0.70;;
60610;SDS011;46439;51.164;13.572;2023-10-31T10:11:07;0.80;;;0.70;;
60610;SDS011;46439;51.164;13.572;2023-10-31T10:13:36;1.00;;;0.80;;
60610;SDS011;46439;51.164;13.572;2023-10-31T10:16:05;1.20;;;0.60;;
60610;SDS011;46439;51.164;13.572;2023-10-31T10:18:36;0.90;;;0.60;;
60610;SDS011;46439;51.164;13.572;2023-10-31T10:21:06;0.80;;;0.80;;
60610;SDS011;46439;51.164;13.572;2023-10-31T10:23:35;2.00;;;0.80;;
60610;SDS011;46439;51.164;13.572;2023-10-31T10:26:04;1.20;;;0.60;;
60610;SDS011;46439;51.164;13.572;2023-10-31T10:28:33;2.60;;;1.60;;
60610;SDS011;46439;51.164;13.572;2023-10-31T10:31:02;0.70;;;0.70;;
60610;SDS011;46439;51.164;13.572;2023-10-31T10:33:33;1.40;;;0.90;;
60610;SDS011;46439;51.164;13.572;2023-10-31T10:36:02;0.70;;;0.70;;
60610;SDS011;46439;51.164;13.572;2023-10-31T10:38:31;3.20;;;1.00;;
60610;SDS011;46439;51.164;13.572;2023-10-31T10:41:02;10.40;;;2.80;;
60610;SDS011;46439;51.164;13.572;2023-10-31T10:43:33;1.00;;;1.00;;
60610;SDS011;46439;51.164;13.572;2023-10-31T10:46:06;1.40;;;1.20;;
60610;SDS011;46439;51.164;13.572;2023-10-31T10:48:39;0.90;;;0.90;;
60610;SDS011;46439;51.164;13.572;2023-10-31T10:51:21;1.90;;;1.20;;
60610;SDS011;46439;51.164;13.572;2023-10-31T10:53:57;1.40;;;1.30;;
60610;SDS011;46439;51.164;13.572;2023-10-31T10:56:34;1.10;;;1.00;;
60610;SDS011;46439;51.164;13.572;2023-10-31T10:59:07;1.10;;;1.00;;
60610;SDS011;46439;51.164;13.572;2023-10-31T11:01:41;0.70;;;0.70;;
60610;SDS011;46439;51.164;13.572;2023-10-31T11:04:13;2.90;;;1.10;;
60610;SDS011;46439;51.164;13.572;2023-10-31T11:06:43;0.90;;;0.90;;
60610;SDS011;46439;51.164;13.572;2023-10-31T11:09:13;1.30;;;0.90;;
60610;SDS011;46439;51.164;13.572;2023-10-31T11:11:42;1.50;;;0.80;;
60610;SDS011;46439;51.164;13.572;2023-10-31T11:14:15;0.80;;;0.80;;
60610;SDS011;46439;51.164;13.572;2023-10-31T11:16:45;1.00;;;1.00;;
60610;SDS011;46439;51.164;13.572;2023-10-31T11:19:18;0.80;;;0.70;;
60610;SDS011;46439;51.164;13.572;2023-10-31T11:21:55;1.10;;;1.00;;
60610;SDS011;46439;51.164;13.572;2023-10-31T11:24:27;1.30;;;1.00;;
60610;SDS011;46439;51.164;13.572;2023-10-31T11:26:59;1.10;;;1.00;;
60610;SDS011;46439;51.164;13.572;2023-10-31T11:29:29;1.80;;;1.40;;
60610;SDS011;46439;51.164;13.572;2023-10-31T11:31:59;5.60;;;1.10;;
60610;SDS011;46439;51.164;13.572;2023-10-31T11:34:28;1.40;;;1.30;;
60610;SDS011;46439;51.164;13.572;2023-10-31T11:42:48;1.00;;;0.90;;
60610;SDS011;46439;51.164;13.572;2023-10-31T11:45:26;0.90;;;0.90;;
60610;SDS011;46439;51.164;13.572;2023-10-31T11:47:56;1.50;;;0.80;;
60610;SDS011;46439;51.164;13.572;2023-10-31T11:50:25;1.20;;;1.10;;
60610;SDS011;46439;51.164;13.572;2023-10-31T11:53:03;2.00;;;1.20;;
60610;SDS011;46439;51.164;13.572;2023-10-31T11:55:34;2.40;;;1.80;;
60610;SDS011;46439;51.164;13.572;2023-10-31T11:58:19;1.10;;;1.10;;
60610;SDS011;46439;51.164;13.572;2023-10-31T12:00:48;0.80;;;0.70;;
60610;SDS011;46439;51.164;13.572;2023-10-31T12:03:18;1.10;;;1.10;;
60610;SDS011;46439;51.164;13.572;2023-10-31T12:05:55;1.50;;;1.40;;
60610;SDS011;46439;51.164;13.572;2023-10-31T12:08:27;1.30;;;1.20;;
60610;SDS011;46439;51.164;13.572;2023-10-31T12:11:07;5.00;;;1.10;;
60610;SDS011;46439;51.164;13.572;2023-10-31T12:13:37;2.50;;;1.40;;
60610;SDS011;46439;51.164;13.572;2023-10-31T12:16:08;1.90;;;0.90;;
60610;SDS011;46439;51.164;13.572;2023-10-31T12:18:37;1.60;;;1.10;;
60610;SDS011;46439;51.164;13.572;2023-10-31T12:21:06;2.20;;;1.40;;
60610;SDS011;46439;51.164;13.572;2023-10-31T12:23:37;2.60;;;1.50;;
60610;SDS011;46439;51.164;13.572;2023-10-31T12:26:05;2.00;;;1.50;;
60610;SDS011;46439;51.164;13.572;2023-10-31T12:28:34;1.30;;;1.20;;
60610;SDS011;46439;51.164;13.572;2023-10-31T12:31:04;1.20;;;0.90;;
60610;SDS011;46439;51.164;13.572;2023-10-31T12:33:34;1.20;;;1.10;;
60610;SDS011;46439;51.164;13.572;2023-10-31T12:36:03;1.80;;;0.70;;
60610;SDS011;46439;51.164;13.572;2023-10-31T12:38:33;1.00;;;0.90;;
60610;SDS011;46439;51.164;13.572;2023-10-31T12:41:02;1.20;;;0.80;;
60610;SDS011;46439;51.164;13.572;2023-10-31T12:43:33;1.80;;;0.50;;
60610;SDS011;46439;51.164;13.572;2023-10-31T12:48:56;0.70;;;0.70;;
60610;SDS011;46439;51.164;13.572;2023-10-31T12:51:25;0.80;;;0.70;;
60610;SDS011;46439;51.164;13.572;2023-10-31T12:53:53;1.20;;;0.90;;
60610;SDS011;46439;51.164;13.572;2023-10-31T12:56:38;11.70;;;7.20;;
60610;SDS011;46439;51.164;13.572;2023-10-31T12:59:07;47.70;;;28.50;;
60610;SDS011;46439;51.164;13.572;2023-10-31T13:01:43;5.50;;;3.10;;
60610;SDS011;46439;51.164;13.572;2023-10-31T13:04:12;2.00;;;1.60;;
60610;SDS011;46439;51.164;13.572;2023-10-31T13:06:57;2.70;;;1.00;;
60610;SDS011;46439;51.164;13.572;2023-10-31T13:09:30;2.10;;;1.90;;
60610;SDS011;46439;51.164;13.572;2023-10-31T13:12:02;2.20;;;2.00;;
60610;SDS011;46439;51.164;13.572;2023-10-31T13:14:32;1.50;;;1.40;;
60610;SDS011;46439;51.164;13.572;2023-10-31T13:17:01;1.50;;;1.30;;
60610;SDS011;46439;51.164;13.572;2023-10-31T13:19:30;1.60;;;1.20;;
60610;SDS011;46439;51.164;13.572;2023-10-31T13:21:59;1.50;;;1.30;;
60610;SDS011;46439;51.164;13.572;2023-10-31T13:24:27;1.60;;;1.50;;
60610;SDS011;46439;51.164;13.572;2023-10-31T13:26:57;1.70;;;1.60;;
60610;SDS011;46439;51.164;13.572;2023-10-31T13:29:27;1.20;;;1.10;;
60610;SDS011;46439;51.164;13.572;2023-10-31T13:31:56;1.30;;;1.20;;
60610;SDS011;46439;51.164;13.572;2023-10-31T13:34:24;2.70;;;1.20;;
60610;SDS011;46439;51.164;13.572;2023-10-31T13:36:53;1.60;;;1.10;;
60610;SDS011;46439;51.164;13.572;2023-10-31T13:39:21;1.20;;;0.90;;
60610;SDS011;46439;51.164;13.572;2023-10-31T13:41:50;1.30;;;1.00;;
60610;SDS011;46439;51.164;13.572;2023-10-31T13:44:18;0.90;;;0.90;;
60610;SDS011;46439;51.164;13.572;2023-10-31T13:46:47;2.00;;;1.20;;
60610;SDS011;46439;51.164;13.572;2023-10-31T13:49:16;0.70;;;0.70;;
60610;SDS011;46439;51.164;13.572;2023-10-31T13:51:46;1.30;;;1.00;;
60610;SDS011;46439;51.164;13.572;2023-10-31T13:54:15;1.00;;;1.00;;
60610;SDS011;46439;51.164;13.572;2023-10-31T13:56:46;3.70;;;1.10;;
60610;SDS011;46439;51.164;13.572;2023-10-31T13:59:15;0.90;;;0.90;;
60610;SDS011;46439;51.164;13.572;2023-10-31T14:01:46;2.30;;;1.10;;
60610;SDS011;46439;51.164;13.572;2023-10-31T14:04:15;1.90;;;1.50;;
60610;SDS011;46439;51.164;13.572;2023-10-31T14:06:46;2.40;;;1.90;;
60610;SDS011;46439;51.164;13.572;2023-10-31T14:09:14;2.10;;;1.50;;
60610;SDS011;46439;51.164;13.572;2023-10-31T14:11:43;2.10;;;1.30;;
60610;SDS011;46439;51.164;13.572;2023-10-31T14:14:12;3.90;;;2.00;;
60610;SDS011;46439;51.164;13.572;2023-10-31T14:16:40;2.30;;;1.30;;
60610;SDS011;46439;51.164;13.572;2023-10-31T14:21:39;3.50;;;2.00;;
60610;SDS011;46439;51.164;13.572;2023-10-31T14:24:09;6.70;;;1.70;;
60610;SDS011;46439;51.164;13.572;2023-10-31T14:26:37;6.50;;;2.50;;
60610;SDS011;46439;51.164;13.572;2023-10-31T14:29:09;7.80;;;2.90;;
60610;SDS011;46439;51.164;13.572;2023-10-31T14:31:41;14.40;;;4.30;;
60610;SDS011;46439;51.164;13.572;2023-10-31T14:34:10;13.70;;;4.40;;
60610;SDS011;46439;51.164;13.572;2023-10-31T14:36:39;9.40;;;3.90;;
60610;SDS011;46439;51.164;13.572;2023-10-31T14:39:08;15.90;;;6.70;;
60610;SDS011;46439;51.164;13.572;2023-10-31T14:41:38;9.90;;;4.50;;
60610;SDS011;46439;51.164;13.572;2023-10-31T14:44:07;10.10;;;5.40;;
60610;SDS011;46439;51.164;13.572;2023-10-31T14:46:35;15.50;;;8.20;;
60610;SDS011;46439;51.164;13.572;2023-10-31T14:49:04;3.50;;;2.50;;
60610;SDS011;46439;51.164;13.572;2023-10-31T14:51:33;9.70;;;4.90;;
60610;SDS011;46439;51.164;13.572;2023-10-31T14:54:02;5.40;;;3.50;;
60610;SDS011;46439;51.164;13.572;2023-10-31T14:56:31;6.00;;;2.60;;